ESSA Airport Information

Runway Information
Runway 01L Length 10830 ft width 148 ft
Elevation 98 ft Threshold 0 ft Heading 10
Runway 19R Length 10830 ft Width 148 ft
Elevation 118 ft Threshold 0 ft Heading 190
Runway 01R Length 8201 ft width 148 ft
Elevation 137 ft Threshold 0 ft Heading 10
Runway 19L Length 8201 ft Width 148 ft
Elevation 98 ft Threshold 0 ft Heading 190
Runway 08 Length 8202 ft width 148 ft
Elevation 108 ft Threshold 0 ft Heading 76
Runway 26 Length 8202 ft Width 148 ft
Elevation 124 ft Threshold 0 ft Heading 256
Airport Frequencies
Type APP Name STOCKHOLM Frequency 123.75 MHZ
Type ATIS Name ATIS Frequency 119 MHZ
Type CLD Name CLNC DEL Frequency 121.825 MHZ
Type GND Name GND Frequency 121.7 MHZ
Type PMSV Name MET OFFICE Frequency 122.6 MHZ
Type TWR Name TWR Frequency 118.5 MHZ
Airport Navaids
Type VOR-DME Name Arlanda Frequency 116000 KHZ
Type NDB Name Arlanda Frequency 352 KHZ
Type NDB Name Arlanda Frequency 360 KHZ
Type NDB Name Arlanda Frequency 404 KHZ
Type NDB Name Arlanda Frequency 370 KHZ
Airport Weather Information & NOTAM
ADDS - METARS form results

(0803 UTC 01 June 2020)
Data provider http://aviationweather.gov/metar/data/
 
METAR text: ESSA 010750Z 01006KT 330V050 CAVOK 19/07 Q1028 NOSIG
Conditions at: ESSA (STOCKHOLM/ARLAND, SE) observed 0750 UTC 01 June 2020
Temperature: 19.0°C (66°F)
Dewpoint: 7.0°C (45°F) [RH = 46%]
Pressure (altimeter): 30.35 inches Hg (1028.0 mb)
Winds: from the N (10 degrees) at 7 MPH (6 knots; 3.1 m/s)
Visibility: 6 or more miles (10+ km)
Ceiling: ceiling and visibility are OK
Clouds: unknown
Weather: no significant weather observed at this time

METAR text: ESSA 010720Z 03005KT 010V080 CAVOK 18/07 Q1028 NOSIG
Conditions at: ESSA (STOCKHOLM/ARLAND, SE) observed 0720 UTC 01 June 2020
Temperature: 18.0°C (64°F)
Dewpoint: 7.0°C (45°F) [RH = 49%]
Pressure (altimeter): 30.35 inches Hg (1028.0 mb)
Winds: from the NNE (30 degrees) at 6 MPH (5 knots; 2.6 m/s)
Visibility: 6 or more miles (10+ km)
Ceiling: ceiling and visibility are OK
Clouds: unknown
Weather: no significant weather observed at this time

Forecast for: ESSA (STOCKHOLM/ARLAND, SE)
Text: TAF ESSA 010530Z 0106/0206 01007KT CAVOK
Forecast period: 0600 UTC 01 June 2020 to 0600 UTC 02 June 2020
Forecast type: FROM: standard forecast or significant change
Winds: from the N (10 degrees) at 8 MPH (7 knots; 3.6 m/s)
Visibility: 6 or more miles 10+ km)
Ceiling: unknown
Clouds: missing
Weather: NSW  (no significant weather)